Terminal Aerodrome Forecast
Issued by NWS

Home | Current Version | Previous Version | Text Only | Print | Product List | Glossary On
Versions: 1 2 3 4 5 6 7 8 9 10 11 12 13 14 15 16 17
772
FTUS43 KEAX 241723
TAFSTJ
TAF
KSTJ 241723Z 2418/2518 23011KT P6SM VCTS SCT050CB BKN090
      TEMPO 2418/2421 5SM RA BR BKN040
     FM242200 25014G24KT P6SM SCT050 BKN120
     FM250200 27007KT P6SM VCTS BKN040CB
      TEMPO 2503/2507 2SM +TSRA BR BKN030CB
     FM250900 35005KT P6SM BKN035=

USA.gov is the U.S. government's official web portal to all federal, state and local government web resources and services.